Time;durP1;ratioP1;P1;durP2;ratioP2;P2;SDS_P1;SDS_P2;PMS_P1;PMS_P2;Temp;Humidity;BMP_temperature;BMP_pressure;BME280_temperature;BME280_humidity;BME280_pressure;Samples;Min_cycle;Max_cycle;Signal;HPM_P1;HPM_P2
2023/06/25 00:02:28;;;;;;;9.70;8.70;;;19.30;99.90;;;;;;4964840;28;20758;-58
2023/06/25 00:04:56;;;;;;;10.10;9.00;;;19.20;99.90;;;;;;4973546;28;20246;-58
2023/06/25 00:07:24;;;;;;;9.63;8.70;;;19.20;99.90;;;;;;4973514;28;20246;-58
2023/06/25 00:09:54;;;;;;;9.70;8.67;;;19.20;99.90;;;;;;4973255;28;20234;-57
2023/06/25 00:12:22;;;;;;;9.97;8.97;;;19.20;99.90;;;;;;4973453;28;20666;-58
2023/06/25 00:14:50;;;;;;;10.63;8.77;;;19.20;99.90;;;;;;4973332;28;20273;-58
2023/06/25 00:17:18;;;;;;;10.17;9.20;;;19.20;99.90;;;;;;4972478;28;20237;-58
2023/06/25 00:19:47;;;;;;;9.93;8.93;;;19.20;99.90;;;;;;4973105;28;20772;-58
2023/06/25 00:22:15;;;;;;;10.57;9.10;;;19.20;99.90;;;;;;4973335;28;20245;-58
2023/06/25 00:24:43;;;;;;;9.00;8.20;;;19.20;99.90;;;;;;5007530;28;21860;-58
2023/06/25 00:27:11;;;;;;;9.90;9.00;;;19.10;99.90;;;;;;5018027;28;20225;-58
2023/06/25 00:29:40;;;;;;;10.03;8.73;;;19.10;99.90;;;;;;5028980;28;20236;-58
2023/06/25 00:32:09;;;;;;;10.10;9.10;;;19.00;99.90;;;;;;5008932;28;20236;-58
2023/06/25 00:34:40;;;;;;;10.07;9.00;;;19.00;99.90;;;;;;5010923;28;20570;-57
2023/06/25 00:37:17;;;;;;;9.80;8.80;;;19.00;99.90;;;;;;5015818;28;20227;-58
2023/06/25 00:39:46;;;;;;;9.70;8.70;;;19.00;99.90;;;;;;5015738;28;20224;-58
2023/06/25 00:42:15;;;;;;;9.47;8.57;;;19.00;99.90;;;;;;5014484;28;20259;-58
2023/06/25 00:44:44;;;;;;;9.83;8.83;;;19.00;99.90;;;;;;5014343;28;20339;-58
2023/06/25 00:47:14;;;;;;;9.57;8.57;;;18.90;99.90;;;;;;5001253;28;20304;-56
2023/06/25 00:49:44;;;;;;;10.03;8.53;;;18.90;99.90;;;;;;4994614;28;20648;-58
2023/06/25 00:52:15;;;;;;;10.23;8.87;;;18.90;99.90;;;;;;4994738;28;20312;-58
2023/06/25 00:54:45;;;;;;;9.40;8.50;;;18.90;99.90;;;;;;5007211;28;20258;-58
2023/06/25 00:57:15;;;;;;;9.23;8.33;;;18.90;99.90;;;;;;5020054;28;20715;-58
2023/06/25 00:59:45;;;;;;;9.53;8.53;;;18.90;99.90;;;;;;5015109;28;20561;-58
2023/06/25 01:02:19;;;;;;;11.03;9.00;;;18.80;99.90;;;;;;5024807;28;20651;-58
2023/06/25 01:04:57;;;;;;;9.33;8.40;;;18.80;99.90;;;;;;4996780;28;20231;-58
2023/06/25 01:07:27;;;;;;;9.97;9.00;;;18.80;99.90;;;;;;4995638;28;20244;-58
2023/06/25 01:09:57;;;;;;;10.23;9.23;;;18.70;99.90;;;;;;5007406;28;20222;-57
2023/06/25 01:12:25;;;;;;;9.77;8.77;;;18.70;99.90;;;;;;5013879;28;20634;-56
2023/06/25 01:14:53;;;;;;;9.43;8.53;;;18.70;99.90;;;;;;5013974;28;20271;-58
2023/06/25 01:17:21;;;;;;;9.63;8.73;;;18.70;99.90;;;;;;5003740;28;20696;-58
2023/06/25 01:19:49;;;;;;;9.53;8.57;;;18.60;99.90;;;;;;5010497;28;20574;-57
2023/06/25 01:22:18;;;;;;;10.40;8.97;;;18.60;99.90;;;;;;4995367;28;20629;-57
2023/06/25 01:24:49;;;;;;;10.87;9.83;;;18.60;99.90;;;;;;5009557;28;20248;-57
2023/06/25 01:27:17;;;;;;;10.00;9.00;;;18.50;99.90;;;;;;5034809;28;20270;-57
2023/06/25 01:29:48;;;;;;;11.10;10.00;;;18.60;99.90;;;;;;5015141;28;20227;-57
2023/06/25 01:32:17;;;;;;;11.33;10.20;;;18.50;99.90;;;;;;5005249;28;20578;-57
2023/06/25 01:34:45;;;;;;;11.40;10.00;;;18.60;99.90;;;;;;4995151;28;20732;-57
2023/06/25 01:37:17;;;;;;;11.33;9.57;;;18.50;99.90;;;;;;4993823;28;20283;-57
2023/06/25 01:39:49;;;;;;;12.57;10.63;;;18.50;99.90;;;;;;4994899;28;20804;-58
2023/06/25 01:42:18;;;;;;;11.57;10.37;;;18.50;99.90;;;;;;5011304;28;20282;-58
2023/06/25 01:44:46;;;;;;;12.13;10.87;;;18.50;99.90;;;;;;5021112;28;20235;-57
2023/06/25 01:47:14;;;;;;;11.33;10.17;;;18.50;99.90;;;;;;5012700;28;20303;-57
2023/06/25 01:49:42;;;;;;;12.93;11.20;;;18.40;99.90;;;;;;5014409;28;20254;-58
2023/06/25 01:52:10;;;;;;;11.93;10.40;;;18.40;99.90;;;;;;5009833;28;20762;-57
2023/06/25 01:54:39;;;;;;;14.00;10.67;;;18.30;99.90;;;;;;5009478;28;20242;-57
2023/06/25 01:57:08;;;;;;;12.40;11.10;;;18.30;99.90;;;;;;5019299;28;20311;-57
2023/06/25 01:59:38;;;;;;;12.47;11.13;;;18.30;99.90;;;;;;5012768;28;20224;-56
2023/06/25 02:02:06;;;;;;;12.37;11.10;;;18.30;99.90;;;;;;5019316;28;20237;-57
2023/06/25 02:04:34;;;;;;;12.73;10.53;;;18.20;99.90;;;;;;5027809;28;20264;-57
2023/06/25 02:07:03;;;;;;;11.53;10.43;;;18.20;99.90;;;;;;5029438;28;20238;-58
2023/06/25 02:09:32;;;;;;;11.10;10.00;;;18.20;99.90;;;;;;4995138;28;20256;-58
2023/06/25 02:12:00;;;;;;;10.27;9.27;;;18.20;99.90;;;;;;5009666;28;20227;-58
2023/06/25 02:14:29;;;;;;;11.17;10.10;;;18.10;99.90;;;;;;5013986;28;20640;-57
2023/06/25 02:16:57;;;;;;;11.03;9.93;;;18.10;99.90;;;;;;5012190;28;20703;-57
2023/06/25 02:19:26;;;;;;;11.20;10.00;;;18.10;99.90;;;;;;4996026;28;20274;-57
2023/06/25 02:21:54;;;;;;;10.73;9.70;;;18.10;99.90;;;;;;5009481;28;20234;-58
2023/06/25 02:24:22;;;;;;;9.63;8.67;;;18.00;99.90;;;;;;5017832;28;20270;-57
2023/06/25 02:26:51;;;;;;;9.90;8.90;;;18.00;99.90;;;;;;5016777;28;20296;-57
2023/06/25 02:29:20;;;;;;;10.03;9.00;;;18.00;99.90;;;;;;5016802;28;20231;-57
2023/06/25 02:31:49;;;;;;;9.47;8.43;;;18.00;99.90;;;;;;5013012;28;20319;-57
2023/06/25 02:34:17;;;;;;;7.87;7.07;;;17.90;99.90;;;;;;4996514;28;20266;-57
2023/06/25 02:36:47;;;;;;;8.80;7.57;;;17.90;99.90;;;;;;4992673;28;20236;-57
2023/06/25 02:39:15;;;;;;;9.40;7.93;;;17.80;99.90;;;;;;4992758;28;20260;-57
2023/06/25 02:41:43;;;;;;;8.50;7.70;;;17.70;99.90;;;;;;5006716;28;20703;-57
2023/06/25 02:44:12;;;;;;;9.57;6.83;;;17.70;99.90;;;;;;5012298;28;20301;-57
2023/06/25 02:46:40;;;;;;;7.67;6.97;;;17.70;99.90;;;;;;5013417;28;20261;-57
2023/06/25 02:49:10;;;;;;;8.60;7.47;;;17.70;99.90;;;;;;5001497;28;20223;-56
2023/06/25 02:51:38;;;;;;;8.73;7.83;;;17.70;99.90;;;;;;4994424;28;20220;-58
2023/06/25 02:54:06;;;;;;;9.43;8.47;;;17.60;99.90;;;;;;5015221;28;20241;-57
2023/06/25 02:56:36;;;;;;;9.70;8.50;;;17.60;99.90;;;;;;5016381;28;20318;-57
2023/06/25 02:59:04;;;;;;;11.53;8.80;;;17.70;99.90;;;;;;5021048;28;20264;-58
2023/06/25 03:01:32;;;;;;;10.13;9.13;;;17.60;99.90;;;;;;5012518;28;20237;-58
2023/06/25 03:04:00;;;;;;;10.73;8.30;;;17.60;99.90;;;;;;5011647;28;20230;-57
2023/06/25 03:06:29;;;;;;;10.53;9.40;;;17.60;99.90;;;;;;5011863;28;20226;-57
2023/06/25 03:08:58;;;;;;;11.67;9.90;;;17.60;99.90;;;;;;5011914;28;20238;-57
2023/06/25 03:11:26;;;;;;;10.50;9.27;;;17.60;99.90;;;;;;5011694;28;20715;-57
2023/06/25 03:13:54;;;;;;;12.03;10.80;;;17.60;99.90;;;;;;5028256;28;20236;-57
2023/06/25 03:16:22;;;;;;;12.43;10.77;;;17.70;99.90;;;;;;5013129;28;20215;-57
2023/06/25 03:18:50;;;;;;;10.63;9.70;;;17.60;99.90;;;;;;5005379;28;20243;-58
2023/06/25 03:21:18;;;;;;;11.87;10.70;;;17.60;99.90;;;;;;5021210;28;20230;-57
2023/06/25 03:23:49;;;;;;;11.33;10.03;;;17.70;99.90;;;;;;5011297;28;20247;-58
2023/06/25 03:26:17;;;;;;;11.83;10.53;;;17.70;99.90;;;;;;5019727;28;20254;-57
2023/06/25 03:28:45;;;;;;;12.93;10.40;;;17.60;99.90;;;;;;5012748;28;20217;-58
2023/06/25 03:31:13;;;;;;;12.13;10.90;;;17.60;99.90;;;;;;5019211;28;20778;-57
2023/06/25 03:33:48;;;;;;;11.83;10.63;;;17.70;99.90;;;;;;5006107;28;20265;-57
2023/06/25 03:36:17;;;;;;;11.27;10.17;;;17.60;99.90;;;;;;5008988;28;20231;-58
2023/06/25 03:38:45;;;;;;;11.87;10.50;;;17.70;99.90;;;;;;5027761;28;20655;-58
2023/06/25 03:41:14;;;;;;;11.40;10.17;;;17.70;99.90;;;;;;5027950;28;20233;-58
2023/06/25 03:43:47;;;;;;;11.23;10.00;;;17.70;99.90;;;;;;5012761;28;20296;-58
2023/06/25 03:46:16;;;;;;;10.40;9.37;;;17.70;99.90;;;;;;5011440;28;20226;-55
2023/06/25 03:48:45;;;;;;;10.20;9.20;;;17.80;99.90;;;;;;5009645;28;20227;-58
2023/06/25 03:51:13;;;;;;;11.07;9.80;;;17.90;99.90;;;;;;5012772;28;20736;-58
2023/06/25 03:53:43;;;;;;;11.33;8.83;;;17.90;99.90;;;;;;5011239;28;20289;-58
2023/06/25 03:56:11;;;;;;;11.07;9.97;;;18.00;99.90;;;;;;5024611;28;20231;-58
2023/06/25 03:58:41;;;;;;;11.00;9.90;;;18.00;99.90;;;;;;4991569;28;20235;-58
2023/06/25 04:01:09;;;;;;;9.63;8.73;;;18.00;99.90;;;;;;5008326;28;20230;-57
2023/06/25 04:03:37;;;;;;;11.03;9.23;;;18.10;99.90;;;;;;5013992;28;20227;-57
2023/06/25 04:06:06;;;;;;;10.50;9.47;;;18.20;99.90;;;;;;4997350;28;20255;-58
2023/06/25 04:08:35;;;;;;;10.90;9.43;;;18.20;99.90;;;;;;4995418;28;20224;-58
2023/06/25 04:11:03;;;;;;;11.03;9.70;;;18.30;99.90;;;;;;5002956;28;20258;-58
2023/06/25 04:13:32;;;;;;;10.10;9.10;;;18.40;99.90;;;;;;4998166;28;20244;-58
2023/06/25 04:16:01;;;;;;;11.87;9.50;;;18.50;99.90;;;;;;4995494;28;20654;-58
2023/06/25 04:18:30;;;;;;;10.60;9.47;;;18.60;99.90;;;;;;5006885;28;20231;-58
2023/06/25 04:20:58;;;;;;;14.97;11.23;;;18.80;99.90;;;;;;5014103;28;20315;-58
2023/06/25 04:23:26;;;;;;;12.03;10.33;;;18.90;99.90;;;;;;5015913;28;20733;-58
2023/06/25 04:25:54;;;;;;;14.60;12.10;;;19.00;99.90;;;;;;5013298;28;20262;-58
2023/06/25 04:28:22;;;;;;;11.60;10.23;;;19.10;99.90;;;;;;5000373;28;20232;-58
2023/06/25 04:30:50;;;;;;;13.23;11.20;;;19.20;99.90;;;;;;5008059;28;20291;-58
2023/06/25 04:33:20;;;;;;;13.13;11.40;;;19.20;99.90;;;;;;5025137;28;20323;-58
2023/06/25 04:35:48;;;;;;;13.47;11.43;;;19.20;99.90;;;;;;5030786;28;20228;-58
2023/06/25 04:38:16;;;;;;;13.63;10.90;;;19.30;99.90;;;;;;5007056;28;20255;-58
2023/06/25 04:40:44;;;;;;;12.93;11.57;;;19.30;99.90;;;;;;5014884;28;20230;-58
2023/06/25 04:43:12;;;;;;;15.90;11.67;;;19.40;99.90;;;;;;5014204;28;20265;-58
2023/06/25 04:45:41;;;;;;;14.87;13.37;;;19.60;99.90;;;;;;5030611;28;20227;-58
2023/06/25 04:48:09;;;;;;;14.00;12.43;;;19.60;99.90;;;;;;5015760;28;20219;-58
2023/06/25 04:50:39;;;;;;;14.83;13.20;;;19.70;99.90;;;;;;5030476;28;20274;-58
2023/06/25 04:53:07;;;;;;;12.40;10.70;;;19.70;99.90;;;;;;5015655;28;20747;-58
2023/06/25 04:55:35;;;;;;;17.57;13.00;;;19.70;99.90;;;;;;5015302;28;20224;-58
2023/06/25 04:58:04;;;;;;;15.47;12.47;;;19.70;99.90;;;;;;4995963;28;20232;-58
2023/06/25 05:00:32;;;;;;;17.33;13.37;;;19.80;99.90;;;;;;5005261;28;20687;-58
2023/06/25 05:03:00;;;;;;;19.10;14.70;;;19.90;99.90;;;;;;5015330;28;20223;-58
2023/06/25 05:05:28;;;;;;;13.77;11.37;;;19.90;99.90;;;;;;5013742;28;20233;-58
2023/06/25 05:07:58;;;;;;;18.37;14.43;;;20.00;99.90;;;;;;5015335;28;20220;-57
2023/06/25 05:10:26;;;;;;;17.70;12.93;;;20.00;99.90;;;;;;5015096;28;20220;-58
2023/06/25 05:12:54;;;;;;;24.30;18.03;;;20.00;99.90;;;;;;5014928;28;20230;-58
2023/06/25 05:15:24;;;;;;;18.23;13.73;;;20.00;99.90;;;;;;5015299;28;20231;-58
2023/06/25 05:17:52;;;;;;;16.77;13.13;;;20.00;99.90;;;;;;5015220;28;20664;-58
2023/06/25 05:20:20;;;;;;;16.63;13.03;;;20.10;99.90;;;;;;5011550;28;20247;-59
2023/06/25 05:22:48;;;;;;;21.43;16.03;;;20.20;99.90;;;;;;4995290;28;20319;-59
2023/06/25 05:25:18;;;;;;;25.33;19.70;;;20.40;99.90;;;;;;5011239;28;20588;-59
2023/06/25 05:27:46;;;;;;;21.30;17.17;;;20.60;99.90;;;;;;5014732;28;20652;-58
2023/06/25 05:30:14;;;;;;;26.37;19.77;;;20.90;99.90;;;;;;5014331;28;20245;-58
2023/06/25 05:32:42;;;;;;;24.27;17.47;;;21.10;99.90;;;;;;5014661;28;20680;-59
2023/06/25 05:35:10;;;;;;;28.40;20.07;;;21.40;99.90;;;;;;5014282;28;20220;-59
2023/06/25 05:37:38;;;;;;;23.77;18.13;;;21.50;99.90;;;;;;5003206;28;20243;-58
2023/06/25 05:40:08;;;;;;;22.00;18.00;;;21.70;99.90;;;;;;5015500;28;20256;-59
2023/06/25 05:42:37;;;;;;;23.83;17.43;;;21.90;99.90;;;;;;5015074;28;20220;-59
2023/06/25 05:45:06;;;;;;;20.70;16.83;;;22.10;99.90;;;;;;5028775;28;20243;-59
2023/06/25 05:47:34;;;;;;;21.40;16.63;;;22.30;99.90;;;;;;5034233;28;20302;-59
2023/06/25 05:50:03;;;;;;;22.00;18.10;;;22.50;99.90;;;;;;5034241;28;20239;-59
2023/06/25 05:52:31;;;;;;;24.13;18.87;;;22.60;99.90;;;;;;4998531;28;20222;-59
2023/06/25 05:54:59;;;;;;;23.20;18.10;;;22.80;99.90;;;;;;5006951;28;20236;-60
2023/06/25 05:57:27;;;;;;;21.80;16.73;;;22.90;99.90;;;;;;5023567;28;20708;-59
2023/06/25 05:59:56;;;;;;;18.37;15.30;;;23.00;99.90;;;;;;5019386;28;20248;-59
2023/06/25 06:02:24;;;;;;;18.63;15.47;;;23.10;99.90;;;;;;5003440;28;20240;-59
2023/06/25 06:04:53;;;;;;;17.60;14.03;;;23.40;99.90;;;;;;5023642;28;20311;-59
2023/06/25 06:07:21;;;;;;;16.30;14.40;;;23.50;99.90;;;;;;5018088;28;20257;-60
2023/06/25 06:09:49;;;;;;;18.27;15.60;;;23.80;99.90;;;;;;5020558;28;20305;-59
2023/06/25 06:12:17;;;;;;;18.97;15.37;;;24.00;99.90;;;;;;5023054;28;20216;-59
2023/06/25 06:14:45;;;;;;;18.27;14.80;;;24.10;99.90;;;;;;5024611;28;20342;-59
2023/06/25 06:17:14;;;;;;;17.10;14.00;;;24.20;99.90;;;;;;5023419;28;20585;-59
2023/06/25 06:19:42;;;;;;;17.40;13.73;;;24.40;99.90;;;;;;5022092;28;20300;-58
2023/06/25 06:22:10;;;;;;;15.23;13.40;;;24.50;99.90;;;;;;5019356;28;20245;-60
2023/06/25 06:24:38;;;;;;;14.57;12.30;;;24.60;99.90;;;;;;5021835;28;20594;-60
2023/06/25 06:27:07;;;;;;;17.67;14.00;;;24.80;99.90;;;;;;5018878;28;20586;-60
2023/06/25 06:29:35;;;;;;;14.23;11.50;;;25.00;99.90;;;;;;5019873;28;20765;-60
2023/06/25 06:32:04;;;;;;;13.57;11.33;;;25.30;99.90;;;;;;5025170;28;20234;-58
2023/06/25 06:34:33;;;;;;;12.77;10.20;;;25.40;99.90;;;;;;5022844;28;20314;-60
2023/06/25 06:37:02;;;;;;;12.60;11.30;;;26.10;99.90;;;;;;5021887;28;20281;-60
2023/06/25 06:39:30;;;;;;;12.87;9.97;;;26.20;99.90;;;;;;5021717;28;20229;-60
2023/06/25 06:41:58;;;;;;;9.83;8.30;;;26.30;99.90;;;;;;5021942;28;20234;-60
2023/06/25 06:44:26;;;;;;;10.87;8.77;;;26.60;99.90;;;;;;5021286;28;20734;-60
2023/06/25 06:46:54;;;;;;;8.90;8.00;;;26.80;99.90;;;;;;5017173;28;20224;-60
2023/06/25 06:49:22;;;;;;;10.60;7.83;;;26.80;99.90;;;;;;5022381;28;20235;-60
2023/06/25 06:51:52;;;;;;;8.20;7.40;;;27.00;99.90;;;;;;5022224;28;20267;-60
2023/06/25 06:54:20;;;;;;;9.93;7.87;;;27.10;99.90;;;;;;5019957;28;20684;-59
2023/06/25 06:56:48;;;;;;;10.47;8.23;;;27.30;99.90;;;;;;5018714;28;20300;-60
2023/06/25 06:59:16;;;;;;;10.80;8.20;;;27.30;99.90;;;;;;5022012;28;20258;-60
2023/06/25 07:01:44;;;;;;;7.90;7.10;;;27.40;99.90;;;;;;5015631;28;20250;-60
2023/06/25 07:04:12;;;;;;;8.70;6.80;;;27.40;99.90;;;;;;5015838;28;20784;-60
2023/06/25 07:06:44;;;;;;;8.87;7.50;;;27.50;99.90;;;;;;4993413;28;20316;-60
2023/06/25 07:09:14;;;;;;;7.47;6.53;;;27.80;99.90;;;;;;5006025;28;20574;-61
2023/06/25 07:11:42;;;;;;;6.57;5.90;;;27.80;99.90;;;;;;5012785;28;20302;-60
2023/06/25 07:14:12;;;;;;;8.10;5.87;;;27.80;99.90;;;;;;5013111;28;20228;-60
2023/06/25 07:16:41;;;;;;;6.00;5.40;;;28.10;99.90;;;;;;5013017;28;20306;-61
2023/06/25 07:19:09;;;;;;;7.00;6.30;;;28.30;99.90;;;;;;5011846;28;20742;-61
2023/06/25 07:21:38;;;;;;;6.27;4.60;;;28.40;99.90;;;;;;5016803;28;20233;-60
2023/06/25 07:24:06;;;;;;;5.90;5.40;;;28.60;99.90;;;;;;5016832;28;20245;-60
2023/06/25 07:26:36;;;;;;;5.73;4.47;;;28.70;99.90;;;;;;5024236;28;20741;-60
2023/06/25 07:29:06;;;;;;;5.63;4.70;;;29.00;99.90;;;;;;5022418;28;20793;-60
2023/06/25 07:31:34;;;;;;;5.33;4.83;;;29.10;99.90;;;;;;5018432;28;20244;-61
2023/06/25 07:34:02;;;;;;;5.67;5.17;;;29.20;99.90;;;;;;5021914;28;20221;-60
2023/06/25 07:36:30;;;;;;;5.23;4.73;;;29.40;99.90;;;;;;5018097;28;20778;-60
2023/06/25 07:39:03;;;;;;;6.07;5.50;;;29.40;99.90;;;;;;5017807;28;20224;-61
2023/06/25 07:41:31;;;;;;;4.70;4.30;;;29.60;99.90;;;;;;5021044;28;20328;-60
2023/06/25 07:44:00;;;;;;;5.20;4.70;;;29.60;99.90;;;;;;5012868;28;20353;-61
2023/06/25 07:46:36;;;;;;;8.87;7.13;;;29.60;99.90;;;;;;5012058;28;20714;-61
2023/06/25 07:49:04;;;;;;;7.03;5.80;;;29.60;99.90;;;;;;5012760;28;20218;-61
2023/06/25 07:51:32;;;;;;;5.00;4.60;;;29.90;99.90;;;;;;5009155;28;20221;-60
2023/06/25 07:54:00;;;;;;;7.13;4.90;;;30.00;99.90;;;;;;5007197;28;20324;-62
2023/06/25 07:56:28;;;;;;;5.57;4.60;;;30.00;99.90;;;;;;5011873;28;20600;-62
2023/06/25 07:58:56;;;;;;;5.07;4.30;;;30.40;99.90;;;;;;5012569;28;20760;-57
2023/06/25 08:01:26;;;;;;;8.43;5.23;;;30.90;99.90;;;;;;5005607;28;20240;-60
2023/06/25 08:03:54;;;;;;;8.97;5.57;;;31.20;99.90;;;;;;5016080;28;20218;-60
2023/06/25 08:06:23;;;;;;;7.03;5.43;;;31.40;99.90;;;;;;5003401;28;20228;-59
2023/06/25 08:08:51;;;;;;;8.00;5.60;;;31.60;99.90;;;;;;5020551;28;20245;-60
2023/06/25 08:11:19;;;;;;;6.50;5.63;;;31.60;99.90;;;;;;5023884;28;20676;-61
2023/06/25 08:13:47;;;;;;;6.53;5.40;;;31.70;99.90;;;;;;5021239;28;20227;-60
2023/06/25 08:16:15;;;;;;;10.60;5.43;;;31.60;99.90;;;;;;5023156;28;20715;-60
2023/06/25 08:18:44;;;;;;;8.70;5.37;;;31.60;99.90;;;;;;5027727;28;20221;-60
2023/06/25 08:21:12;;;;;;;7.63;4.67;;;31.60;99.90;;;;;;5023868;28;20232;-60
2023/06/25 08:23:40;;;;;;;8.40;4.63;;;32.10;99.90;;;;;;5023364;28;20243;-60
2023/06/25 08:26:09;;;;;;;6.70;5.30;;;32.30;99.90;;;;;;5009237;28;20585;-59
2023/06/25 08:28:37;;;;;;;12.30;5.07;;;32.40;99.90;;;;;;5011927;28;20742;-61
2023/06/25 08:31:05;;;;;;;8.40;4.87;;;32.40;99.90;;;;;;5012820;28;20644;-64
2023/06/25 08:33:33;;;;;;;7.40;5.70;;;32.30;99.90;;;;;;5006890;28;20248;-64
2023/06/25 08:36:02;;;;;;;6.57;4.90;;;31.70;99.90;;;;;;5009239;28;20224;-63
2023/06/25 08:38:32;;;;;;;9.00;4.80;;;32.00;99.90;;;;;;5002868;28;20225;-64
2023/06/25 08:41:01;;;;;;;8.13;5.47;;;32.80;99.90;;;;;;5011200;28;20730;-64
2023/06/25 08:43:29;;;;;;;6.17;4.87;;;33.10;99.90;;;;;;5011000;28;20243;-63
2023/06/25 08:45:57;;;;;;;6.10;4.83;;;33.20;99.90;;;;;;5011301;28;20583;-64
2023/06/25 08:48:30;;;;;;;8.33;6.03;;;33.10;99.90;;;;;;5010218;28;20261;-63
2023/06/25 08:51:08;;;;;;;5.37;4.87;;;33.60;99.90;;;;;;5009926;28;20265;-64
2023/06/25 08:53:36;;;;;;;5.90;5.40;;;33.40;99.90;;;;;;5011421;28;20222;-64
2023/06/25 08:56:06;;;;;;;9.63;6.87;;;32.80;99.90;;;;;;5013177;28;20233;-64
2023/06/25 08:58:35;;;;;;;8.67;6.60;;;32.90;99.90;;;;;;5013909;28;20225;-64
2023/06/25 09:01:04;;;;;;;6.10;4.87;;;32.50;99.90;;;;;;5009656;28;20577;-65
2023/06/25 09:03:32;;;;;;;6.10;5.30;;;33.00;99.90;;;;;;5024365;28;20226;-64
2023/06/25 09:06:00;;;;;;;6.57;5.10;;;33.40;99.90;;;;;;5011901;28;20314;-64
2023/06/25 09:08:30;;;;;;;6.40;5.80;;;33.50;99.90;;;;;;5013935;28;20225;-62
2023/06/25 09:10:58;;;;;;;5.47;4.90;;;33.60;99.90;;;;;;5014363;28;20228;-64
2023/06/25 09:13:27;;;;;;;6.10;5.53;;;33.80;99.90;;;;;;5014152;28;20252;-63
2023/06/25 09:16:02;;;;;;;7.57;6.10;;;33.70;99.90;;;;;;5017390;28;20256;-64
2023/06/25 09:18:30;;;;;;;5.93;4.63;;;34.10;99.90;;;;;;5015261;28;20259;-63
2023/06/25 09:21:01;;;;;;;5.87;5.30;;;34.10;99.90;;;;;;5012575;28;20650;-63
2023/06/25 09:23:31;;;;;;;5.57;5.03;;;34.00;99.90;;;;;;5015238;28;20391;-63
2023/06/25 09:26:04;;;;;;;6.57;5.57;;;34.40;99.90;;;;;;5010629;28;20259;-63
2023/06/25 09:28:33;;;;;;;5.53;4.97;;;34.60;99.90;;;;;;5008656;28;20762;-64
2023/06/25 09:31:01;;;;;;;6.50;5.33;;;35.10;99.90;;;;;;5007273;28;20328;-61
2023/06/25 09:33:34;;;;;;;6.10;5.00;;;35.50;98.50;;;;;;5005608;28;20283;-62
2023/06/25 09:36:03;;;;;;;6.43;5.70;;;35.20;99.60;;;;;;5008979;28;20271;-63
2023/06/25 09:38:53;;;;;;;5.73;5.23;;;35.00;99.30;;;;;;5013723;28;20285;-63
2023/06/25 09:41:22;;;;;;;6.80;4.83;;;35.20;99.00;;;;;;5012422;28;20693;-63
2023/06/25 09:43:52;;;;;;;5.07;4.67;;;35.50;99.20;;;;;;5010944;28;20311;-62
2023/06/25 09:46:22;;;;;;;6.53;4.97;;;35.80;98.30;;;;;;5008995;28;20235;-63
2023/06/25 09:48:51;;;;;;;5.87;5.27;;;36.00;97.70;;;;;;5016595;28;20253;-62
2023/06/25 09:51:22;;;;;;;5.97;5.17;;;36.50;96.50;;;;;;5008775;28;20221;-60
2023/06/25 09:53:53;;;;;;;6.40;5.47;;;36.00;95.30;;;;;;5010895;28;20225;-61
2023/06/25 09:56:23;;;;;;;5.60;4.87;;;35.50;94.20;;;;;;5009644;28;20704;-59
2023/06/25 09:58:51;;;;;;;7.27;4.67;;;35.20;96.20;;;;;;5007891;28;20248;-61
2023/06/25 10:01:19;;;;;;;7.87;4.80;;;35.20;96.00;;;;;;5008051;28;20236;-61
2023/06/25 10:03:48;;;;;;;7.80;4.47;;;35.70;98.40;;;;;;5005916;28;20302;-61
2023/06/25 10:06:17;;;;;;;5.43;4.90;;;36.50;94.80;;;;;;5006669;28;20225;-62
2023/06/25 10:08:45;;;;;;;8.20;5.40;;;36.90;95.10;;;;;;5011787;28;20711;-62
2023/06/25 10:11:15;;;;;;;8.00;5.60;;;36.60;93.60;;;;;;5013544;28;20236;-61
2023/06/25 10:13:45;;;;;;;8.33;5.33;;;36.40;92.60;;;;;;5012644;28;20760;-62
2023/06/25 10:16:18;;;;;;;5.60;4.40;;;35.60;93.50;;;;;;5014325;28;20276;-61
2023/06/25 10:18:57;;;;;;;5.37;4.87;;;35.10;96.50;;;;;;5008200;28;20236;-61
2023/06/25 10:21:25;;;;;;;5.70;4.70;;;35.40;95.90;;;;;;5007502;28;20245;-61
2023/06/25 10:23:56;;;;;;;6.20;4.60;;;35.80;94.50;;;;;;5011703;28;20249;-61
2023/06/25 10:26:29;;;;;;;7.87;4.97;;;35.40;95.40;;;;;;5006800;28;20625;-62
2023/06/25 10:29:01;;;;;;;9.37;4.93;;;34.60;95.80;;;;;;5009027;28;20225;-61
2023/06/25 10:31:38;;;;;;;5.87;4.77;;;34.80;95.80;;;;;;5013253;28;20229;-62
2023/06/25 10:34:07;;;;;;;6.83;4.40;;;34.60;96.00;;;;;;5011392;28;20275;-62
2023/06/25 10:36:36;;;;;;;5.93;4.43;;;34.00;96.70;;;;;;5013463;28;20225;-61
2023/06/25 10:39:04;;;;;;;5.20;4.80;;;34.50;97.10;;;;;;5010434;28;20240;-62
2023/06/25 10:41:33;;;;;;;5.23;4.73;;;35.60;95.70;;;;;;5014186;28;20224;-62
2023/06/25 10:44:01;;;;;;;5.27;4.77;;;35.70;95.40;;;;;;5003998;28;20693;-62
2023/06/25 10:46:31;;;;;;;9.10;4.43;;;35.70;93.70;;;;;;5012809;28;20636;-61
2023/06/25 10:49:03;;;;;;;5.70;5.10;;;35.70;95.50;;;;;;5010786;28;20256;-62
2023/06/25 10:51:33;;;;;;;5.30;4.72;;;35.70;95.40;;;;;;5018579;28;20579;-65
2023/06/25 10:54:02;;;;;;;4.70;4.30;;;36.20;95.90;;;;;;5015390;28;20221;-65
2023/06/25 10:56:30;;;;;;;6.30;4.60;;;36.60;94.00;;;;;;5009711;28;20232;-64
2023/06/25 10:59:00;;;;;;;5.13;4.63;;;36.90;93.60;;;;;;5008569;28;20221;-65
2023/06/25 11:01:34;;;;;;;5.33;4.23;;;37.40;91.70;;;;;;5010631;28;20229;-64
2023/06/25 11:04:13;;;;;;;6.50;4.77;;;36.80;93.10;;;;;;5011024;28;20220;-65
2023/06/25 11:06:41;;;;;;;4.83;4.43;;;35.90;93.80;;;;;;5010854;28;20748;-64
2023/06/25 11:09:11;;;;;;;5.60;5.00;;;35.00;95.30;;;;;;5012529;28;20229;-64
2023/06/25 11:11:39;;;;;;;5.83;5.33;;;34.30;95.20;;;;;;5012620;28;20308;-64
2023/06/25 11:14:08;;;;;;;4.87;4.47;;;33.60;95.10;;;;;;5015374;28;20220;-64
2023/06/25 11:16:36;;;;;;;6.50;5.00;;;33.50;97.20;;;;;;5014808;28;20236;-64
2023/06/25 11:19:05;;;;;;;5.53;5.00;;;33.30;96.80;;;;;;5017850;28;20599;-64
2023/06/25 11:21:35;;;;;;;5.20;4.43;;;33.20;97.40;;;;;;5012689;28;20225;-63
2023/06/25 11:24:08;;;;;;;4.77;4.37;;;33.60;98.70;;;;;;5007505;28;20753;-64
2023/06/25 11:26:40;;;;;;;14.97;5.17;;;35.00;97.90;;;;;;5005889;28;20231;-65
2023/06/25 11:29:11;;;;;;;5.60;4.97;;;36.40;96.00;;;;;;5007234;28;20743;-64
2023/06/25 11:31:43;;;;;;;5.27;4.77;;;37.30;92.50;;;;;;5005471;28;20260;-65
2023/06/25 11:34:21;;;;;;;16.80;4.70;;;37.70;91.70;;;;;;5009555;28;20261;-63
2023/06/25 11:36:49;;;;;;;7.10;4.87;;;37.20;93.60;;;;;;5004583;28;20225;-64
2023/06/25 11:39:18;;;;;;;32.50;5.53;;;36.10;92.90;;;;;;5010132;28;20225;-64
2023/06/25 11:41:46;;;;;;;19.40;5.70;;;35.10;94.00;;;;;;5003764;28;20222;-64
2023/06/25 11:44:19;;;;;;;7.83;4.97;;;34.50;95.10;;;;;;5007466;28;20693;-62
2023/06/25 11:46:50;;;;;;;19.27;5.27;;;34.10;95.50;;;;;;5010909;28;20220;-63
2023/06/25 11:49:19;;;;;;;14.33;4.90;;;33.80;96.70;;;;;;5011770;28;20240;-63
2023/06/25 11:51:53;;;;;;;9.20;4.50;;;34.70;96.70;;;;;;5009930;28;20237;-63
2023/06/25 11:54:21;;;;;;;5.37;4.47;;;34.90;96.00;;;;;;5010366;28;20628;-63
2023/06/25 11:56:49;;;;;;;5.60;4.70;;;34.80;95.30;;;;;;5009867;28;20217;-62
2023/06/25 11:59:19;;;;;;;5.83;4.93;;;34.30;95.30;;;;;;5007971;28;20231;-62
2023/06/25 12:01:47;;;;;;;5.07;4.57;;;33.80;95.70;;;;;;5009463;28;20233;-62
2023/06/25 12:04:15;;;;;;;5.20;4.70;;;33.20;97.10;;;;;;5011098;28;20704;-62
2023/06/25 12:06:43;;;;;;;5.27;4.40;;;33.30;98.50;;;;;;5010184;28;20696;-63
2023/06/25 12:09:11;;;;;;;4.90;4.50;;;33.40;97.40;;;;;;5011653;28;20624;-63
2023/06/25 12:11:39;;;;;;;4.70;4.20;;;33.30;98.10;;;;;;5010506;28;20292;-62
2023/06/25 12:14:07;;;;;;;5.47;4.90;;;33.30;98.40;;;;;;5009524;28;20321;-62
2023/06/25 12:16:37;;;;;;;4.73;4.33;;;33.20;97.40;;;;;;5011968;28;20217;-62
2023/06/25 12:19:05;;;;;;;5.33;4.83;;;33.20;98.40;;;;;;5004006;28;20275;-62
2023/06/25 12:21:33;;;;;;;6.07;4.90;;;33.60;97.90;;;;;;5010445;28;20225;-62
2023/06/25 12:24:01;;;;;;;5.43;4.70;;;33.50;96.90;;;;;;5009422;28;20324;-58
2023/06/25 12:26:29;;;;;;;6.90;5.37;;;33.60;97.20;;;;;;5014087;28;20229;-59
2023/06/25 12:28:57;;;;;;;5.07;4.40;;;33.50;96.90;;;;;;5009579;28;20312;-56
2023/06/25 12:31:25;;;;;;;20.00;5.40;;;33.30;98.30;;;;;;5008887;28;20229;-59
2023/06/25 12:33:55;;;;;;;7.87;4.87;;;33.40;98.60;;;;;;5012481;28;20221;-61
2023/06/25 12:36:23;;;;;;;9.87;4.77;;;33.60;98.00;;;;;;5011112;28;20225;-57
2023/06/25 12:38:51;;;;;;;6.27;5.00;;;33.80;98.30;;;;;;5015678;28;20292;-60
2023/06/25 12:41:22;;;;;;;4.70;4.30;;;33.60;97.90;;;;;;5012863;28;20300;-61
2023/06/25 12:43:50;;;;;;;5.27;4.60;;;33.80;98.30;;;;;;5014122;28;20225;-61
2023/06/25 12:46:19;;;;;;;4.80;4.40;;;34.10;96.60;;;;;;5014875;28;20221;-60
2023/06/25 12:48:50;;;;;;;5.37;4.87;;;34.10;99.10;;;;;;5014472;28;20256;-61
2023/06/25 12:51:19;;;;;;;6.53;4.80;;;33.80;97.70;;;;;;5014085;28;20225;-61